Time,TemperatureF,DewpointF,PressureIn,WindDirection,WindDirectionDegrees,WindSpeedMPH,WindSpeedGustMPH,Humidity,HourlyPrecipIn,Conditions,Clouds,dailyrainin,SoftwareType,DateUTC
2013-04-12 00:00:00,46.0,37.8,29.92,NE,41,2.0,5.0,73,0.00,,,0.00,VWS V14.01,2013-04-12 04:00:00,
2013-04-12 00:10:00,46.0,37.8,29.92,NE,38,3.0,6.0,73,0.00,,,0.00,VWS V14.01,2013-04-12 04:10:00,
2013-04-12 00:20:00,46.0,37.8,29.93,NNE,33,2.0,6.0,73,0.00,,,0.00,VWS V14.01,2013-04-12 04:20:00,
2013-04-12 00:30:00,46.0,37.8,29.92,NE,48,3.0,5.0,73,0.00,,,0.00,VWS V14.01,2013-04-12 04:30:00,
2013-04-12 00:40:00,46.0,37.5,29.92,NE,46,1.0,4.0,72,0.00,,,0.00,VWS V14.01,2013-04-12 04:40:00,
2013-04-12 00:50:00,46.0,37.5,29.92,NE,51,2.0,5.0,72,0.00,,,0.00,VWS V14.01,2013-04-12 04:50:00,
2013-04-12 01:00:00,46.0,37.1,29.91,NE,40,1.0,5.0,71,0.00,,,0.00,VWS V14.01,2013-04-12 05:00:00,
2013-04-12 01:10:00,46.1,36.9,29.91,NE,43,1.0,7.0,70,0.00,,,0.00,VWS V14.01,2013-04-12 05:10:00,
2013-04-12 01:20:00,46.1,36.9,29.90,NNE,28,2.0,4.0,70,0.00,,,0.00,VWS V14.01,2013-04-12 05:20:00,
2013-04-12 01:30:00,46.1,37.2,29.90,NNE,14,2.0,6.0,71,0.00,,,0.00,VWS V14.01,2013-04-12 05:30:00,
2013-04-12 01:40:00,46.1,36.9,29.90,NE,47,1.0,5.0,70,0.00,,,0.00,VWS V14.01,2013-04-12 05:40:00,
2013-04-12 01:50:00,46.1,37.6,29.90,NE,42,2.0,5.0,72,0.00,,,0.00,VWS V14.01,2013-04-12 05:50:00,
2013-04-12 02:00:00,46.1,37.6,29.89,NNE,28,2.0,7.0,72,0.00,,,0.00,VWS V14.01,2013-04-12 06:00:00,
2013-04-12 02:10:00,46.0,38.2,29.89,NE,38,3.0,5.0,74,0.00,,,0.00,VWS V14.01,2013-04-12 06:10:00,
2013-04-12 02:20:00,45.9,38.8,29.89,North,9,3.0,5.0,76,0.00,,,0.00,VWS V14.01,2013-04-12 06:20:00,
2013-04-12 02:30:00,45.9,38.4,29.89,NE,54,2.0,6.0,75,0.00,,,0.00,VWS V14.01,2013-04-12 06:30:00,
2013-04-12 02:40:00,45.8,38.7,29.89,NE,40,3.0,6.0,76,0.00,,,0.00,VWS V14.01,2013-04-12 06:40:00,
2013-04-12 02:50:00,45.7,38.6,29.90,NE,38,3.0,6.0,76,0.00,,,0.00,VWS V14.01,2013-04-12 06:50:00,
2013-04-12 03:00:00,45.6,38.5,29.89,NNE,16,2.0,9.0,76,0.00,,,0.00,VWS V14.01,2013-04-12 07:00:00,
2013-04-12 03:10:00,45.5,38.7,29.89,ENE,65,2.0,5.0,77,0.00,,,0.00,VWS V14.01,2013-04-12 07:10:00,
2013-04-12 03:20:00,45.4,38.0,29.89,NNE,26,4.0,6.0,75,0.00,,,0.00,VWS V14.01,2013-04-12 07:20:00,
2013-04-12 03:30:00,45.3,37.9,29.89,NE,40,2.0,6.0,75,0.00,,,0.00,VWS V14.01,2013-04-12 07:30:00,
2013-04-12 03:40:00,45.4,37.6,29.89,NE,49,9.0,9.0,74,0.00,,,0.00,VWS V14.01,2013-04-12 07:40:00,
2013-04-12 03:50:00,45.5,37.4,29.88,NNE,17,1.0,9.0,73,0.00,,,0.00,VWS V14.01,2013-04-12 07:50:00,
2013-04-12 04:00:00,45.4,37.3,29.87,NE,42,1.0,8.0,73,0.00,,,0.00,VWS V14.01,2013-04-12 08:00:00,
2013-04-12 04:10:00,45.3,37.2,29.87,NE,52,0.0,6.0,73,0.00,,,0.00,VWS V14.01,2013-04-12 08:10:00,
2013-04-12 04:20:00,45.3,35.7,29.88,NE,34,4.0,10.0,69,0.00,,,0.00,VWS V14.01,2013-04-12 08:20:00,
2013-04-12 04:30:00,45.2,35.7,29.88,NNE,31,2.0,6.0,69,0.00,,,0.00,VWS V14.01,2013-04-12 08:30:00,
2013-04-12 04:40:00,45.2,35.7,29.88,NE,38,5.0,6.0,69,0.00,,,0.00,VWS V14.01,2013-04-12 08:40:00,
2013-04-12 04:50:00,45.0,37.2,29.87,NE,34,4.0,11.0,74,0.00,,,0.00,VWS V14.01,2013-04-12 08:50:00,
2013-04-12 05:00:00,44.6,38.2,29.88,NNE,30,3.0,4.0,78,0.00,,,0.00,VWS V14.01,2013-04-12 09:00:00,
2013-04-12 05:10:00,44.2,38.4,29.88,NE,44,4.0,5.0,80,0.00,,,0.00,VWS V14.01,2013-04-12 09:10:00,
2013-04-12 05:20:00,44.1,38.0,29.88,NE,34,2.0,9.0,79,0.00,,,0.00,VWS V14.01,2013-04-12 09:20:00,
2013-04-12 05:30:00,44.1,37.7,29.88,North,5,1.0,8.0,78,0.00,,,0.00,VWS V14.01,2013-04-12 09:30:00,
2013-04-12 05:40:00,44.0,36.9,29.88,ESE,109,4.0,9.0,76,0.00,,,0.00,VWS V14.01,2013-04-12 09:40:00,
2013-04-12 05:50:00,44.0,36.3,29.87,NE,42,3.0,7.0,74,0.00,,,0.00,VWS V14.01,2013-04-12 09:50:00,
2013-04-12 06:00:00,44.1,35.3,29.87,NNE,25,2.0,9.0,71,0.00,,,0.00,VWS V14.01,2013-04-12 10:00:00,
2013-04-12 06:10:00,44.2,34.7,29.87,NNE,17,3.0,10.0,69,0.00,,,0.00,VWS V14.01,2013-04-12 10:10:00,
2013-04-12 06:20:00,44.3,34.4,29.86,NE,46,1.0,10.0,68,0.00,,,0.00,VWS V14.01,2013-04-12 10:20:00,
2013-04-12 06:30:00,44.3,34.0,29.86,NE,47,4.0,9.0,67,0.00,,,0.00,VWS V14.01,2013-04-12 10:30:00,
2013-04-12 06:40:00,44.2,34.0,29.86,NNE,30,4.0,10.0,67,0.00,,,0.00,VWS V14.01,2013-04-12 10:40:00,
2013-04-12 06:50:00,44.2,34.3,29.85,NNE,30,3.0,7.0,68,0.00,,,0.00,VWS V14.01,2013-04-12 10:50:00,
2013-04-12 07:00:00,44.2,33.6,29.84,SE,140,3.0,11.0,66,0.00,,,0.00,VWS V14.01,2013-04-12 11:00:00,
2013-04-12 07:10:00,44.0,33.8,29.84,NNE,26,5.0,10.0,67,0.00,,,0.00,VWS V14.01,2013-04-12 11:10:00,
2013-04-12 07:20:00,43.8,35.0,29.85,North,360,4.0,9.0,71,0.00,,,0.00,VWS V14.01,2013-04-12 11:20:00,
2013-04-12 07:30:00,43.7,35.3,29.85,NE,49,4.0,11.0,72,0.00,,,0.00,VWS V14.01,2013-04-12 11:30:00,
2013-04-12 07:40:00,43.5,36.1,29.85,NE,46,6.0,10.0,75,0.00,,,0.00,VWS V14.01,2013-04-12 11:40:00,
2013-04-12 07:50:00,43.2,36.8,29.85,ENE,58,8.0,12.0,78,0.00,,,0.00,VWS V14.01,2013-04-12 11:50:00,
2013-04-12 08:00:00,43.2,35.8,29.84,NE,38,2.0,10.0,75,0.00,,,0.00,VWS V14.01,2013-04-12 12:00:00,
2013-04-12 08:10:00,43.3,35.6,29.84,NNE,17,2.0,11.0,74,0.00,,,0.00,VWS V14.01,2013-04-12 12:10:00,
2013-04-12 08:20:00,43.2,35.8,29.83,NE,38,3.0,12.0,75,0.00,,,0.00,VWS V14.01,2013-04-12 12:20:00,
2013-04-12 08:30:00,43.1,35.7,29.82,NE,36,4.0,12.0,75,0.00,,,0.00,VWS V14.01,2013-04-12 12:30:00,
2013-04-12 08:40:00,43.1,35.7,29.82,NE,40,5.0,12.0,75,0.00,,,0.00,VWS V14.01,2013-04-12 12:40:00,
2013-04-12 08:50:00,42.9,35.9,29.82,NE,42,5.0,10.0,76,0.00,,,0.00,VWS V14.01,2013-04-12 12:50:00,
2013-04-12 09:00:00,42.7,35.7,29.80,NNE,17,3.0,15.0,76,0.00,,,0.00,VWS V14.01,2013-04-12 13:00:00,
2013-04-12 09:10:00,42.6,36.2,29.80,NE,38,5.0,14.0,78,0.00,,,0.00,VWS V14.01,2013-04-12 13:10:00,
2013-04-12 09:20:00,42.4,36.7,29.81,NNE,33,5.0,11.0,80,0.00,,,0.00,VWS V14.01,2013-04-12 13:20:00,
2013-04-12 09:30:00,41.7,39.0,29.79,North,360,3.0,12.0,90,0.03,,,0.03,VWS V14.01,2013-04-12 13:30:00,
2013-04-12 09:40:00,41.1,38.4,29.79,SSW,211,4.0,12.0,90,0.03,,,0.03,VWS V14.01,2013-04-12 13:40:00,
2013-04-12 09:50:00,41.0,38.9,29.79,NNE,33,4.0,9.0,92,0.03,,,0.03,VWS V14.01,2013-04-12 13:50:00,
2013-04-12 10:00:00,40.9,38.8,29.78,NNE,27,4.0,10.0,92,0.03,,,0.03,VWS V14.01,2013-04-12 14:00:00,
2013-04-12 10:10:00,40.7,38.6,29.78,NE,48,4.0,14.0,92,0.03,,,0.03,VWS V14.01,2013-04-12 14:10:00,
2013-04-12 10:20:00,40.5,38.6,29.79,North,360,2.0,9.0,93,0.11,,,0.11,VWS V14.01,2013-04-12 14:20:00,
2013-04-12 10:30:00,40.2,38.3,29.77,NE,38,2.0,13.0,93,0.15,,,0.15,VWS V14.01,2013-04-12 14:30:00,
2013-04-12 10:40:00,40.1,38.5,29.77,NNE,19,4.0,14.0,94,0.12,,,0.15,VWS V14.01,2013-04-12 14:40:00,
2013-04-12 10:50:00,40.0,38.4,29.78,NE,34,7.0,12.0,94,0.13,,,0.16,VWS V14.01,2013-04-12 14:50:00,
2013-04-12 11:00:00,40.0,38.4,29.77,NNE,17,1.0,10.0,94,0.14,,,0.17,VWS V14.01,2013-04-12 15:00:00,
2013-04-12 11:10:00,40.1,38.8,29.77,NNE,24,4.0,6.0,95,0.18,,,0.21,VWS V14.01,2013-04-12 15:10:00,
2013-04-12 11:20:00,40.0,38.7,29.78,SSW,202,2.0,11.0,95,0.24,,,0.27,VWS V14.01,2013-04-12 15:20:00,
2013-04-12 11:30:00,40.0,38.7,29.78,NNE,26,2.0,9.0,95,0.21,,,0.32,VWS V14.01,2013-04-12 15:30:00,
2013-04-12 11:40:00,40.0,38.7,29.78,NE,54,3.0,8.0,95,0.19,,,0.34,VWS V14.01,2013-04-12 15:40:00,
2013-04-12 11:50:00,40.3,39.2,29.77,NE,35,2.0,9.0,96,0.20,,,0.35,VWS V14.01,2013-04-12 15:50:00,
2013-04-12 12:00:00,40.4,39.3,29.76,NE,50,4.0,11.0,96,0.21,,,0.37,VWS V14.01,2013-04-12 16:00:00,
2013-04-12 12:10:00,40.4,39.3,29.76,NE,38,5.0,10.0,96,0.22,,,0.39,VWS V14.01,2013-04-12 16:10:00,
2013-04-12 12:20:00,40.4,39.3,29.75,NE,37,3.0,10.0,96,0.19,,,0.40,VWS V14.01,2013-04-12 16:20:00,
2013-04-12 12:30:00,40.5,39.5,29.74,North,360,2.0,7.0,96,0.15,,,0.42,VWS V14.01,2013-04-12 16:30:00,
2013-04-12 12:40:00,40.7,39.7,29.74,ENE,66,2.0,7.0,96,0.11,,,0.43,VWS V14.01,2013-04-12 16:40:00,
2013-04-12 12:50:00,40.8,39.8,29.75,WSW,238,0.0,6.0,96,0.11,,,0.45,VWS V14.01,2013-04-12 16:50:00,
2013-04-12 13:00:00,41.0,40.0,29.74,NNE,13,2.0,7.0,96,0.12,,,0.47,VWS V14.01,2013-04-12 17:00:00,
2013-04-12 13:10:00,41.3,40.5,29.74,North,9,3.0,9.0,97,0.11,,,0.48,VWS V14.01,2013-04-12 17:10:00,
2013-04-12 13:20:00,41.5,40.5,29.72,NE,55,5.0,11.0,96,0.10,,,0.49,VWS V14.01,2013-04-12 17:20:00,
2013-04-12 13:30:00,41.3,40.2,29.70,NE,36,2.0,11.0,96,0.09,,,0.49,VWS V14.01,2013-04-12 17:30:00,
2013-04-12 13:40:00,41.4,40.3,29.70,SSE,150,4.0,12.0,96,0.08,,,0.50,VWS V14.01,2013-04-12 17:40:00,
2013-04-12 13:50:00,41.4,40.3,29.69,NNE,24,2.0,7.0,96,0.08,,,0.51,VWS V14.01,2013-04-12 17:50:00,
2013-04-12 14:00:00,41.4,40.3,29.67,NE,38,2.0,6.0,96,0.06,,,0.51,VWS V14.01,2013-04-12 18:00:00,
2013-04-12 14:10:00,41.5,40.5,29.67,NNE,30,1.0,7.0,96,0.04,,,0.51,VWS V14.01,2013-04-12 18:10:00,
2013-04-12 14:20:00,41.5,40.5,29.67,NNE,28,3.0,7.0,96,0.05,,,0.53,VWS V14.01,2013-04-12 18:20:00,
2013-04-12 15:30:00,42.4,41.6,29.62,ENE,78,2.0,4.0,97,0.09,,,0.62,VWS V14.01,2013-04-12 19:30:00,
2013-04-12 15:40:00,42.3,41.5,29.62,NE,46,2.0,7.0,97,0.13,,,0.67,VWS V14.01,2013-04-12 19:40:00,
2013-04-12 15:50:00,42.4,41.6,29.61,East,93,1.0,4.0,97,0.16,,,0.71,VWS V14.01,2013-04-12 19:50:00,
2013-04-12 16:00:00,42.4,41.6,29.60,NNE,32,2.0,5.0,97,0.16,,,0.71,VWS V14.01,2013-04-12 20:00:00,
2013-04-12 16:10:00,42.5,41.7,29.60,NE,38,1.0,5.0,97,0.19,,,0.74,VWS V14.01,2013-04-12 20:10:00,
2013-04-12 16:20:00,42.7,41.9,29.60,NE,34,2.0,4.0,97,0.20,,,0.76,VWS V14.01,2013-04-12 20:20:00,
2013-04-12 16:30:00,42.7,41.9,29.60,East,95,0.0,4.0,97,0.18,,,0.76,VWS V14.01,2013-04-12 20:30:00,
2013-04-12 16:40:00,42.8,42.0,29.60,WNW,293,0.0,4.0,97,0.14,,,0.76,VWS V14.01,2013-04-12 20:40:00,
2013-04-12 16:50:00,42.7,41.9,29.60,SE,139,1.0,4.0,97,0.12,,,0.79,VWS V14.01,2013-04-12 20:50:00,
2013-04-12 17:00:00,42.8,42.0,29.59,ENE,69,1.0,3.0,97,0.08,,,0.79,VWS V14.01,2013-04-12 21:00:00,
2013-04-12 17:10:00,42.8,42.0,29.59,NNE,14,0.0,4.0,97,0.09,,,0.80,VWS V14.01,2013-04-12 21:10:00,
2013-04-12 17:20:00,42.8,42.0,29.58,NNE,23,0.0,3.0,97,0.06,,,0.80,VWS V14.01,2013-04-12 21:20:00,
2013-04-12 17:30:00,42.7,41.9,29.59,SE,146,0.0,7.0,97,0.04,,,0.80,VWS V14.01,2013-04-12 21:30:00,
2013-04-12 17:40:00,42.7,41.9,29.59,SE,146,2.0,4.0,97,0.05,,,0.81,VWS V14.01,2013-04-12 21:40:00,
2013-04-12 17:50:00,42.6,41.8,29.58,SE,146,1.0,4.0,97,0.05,,,0.81,VWS V14.01,2013-04-12 21:50:00,
2013-04-12 18:00:00,42.5,41.7,29.58,SE,129,2.0,5.0,97,0.02,,,0.81,VWS V14.01,2013-04-12 22:00:00,
2013-04-12 18:10:00,42.5,41.7,29.58,SE,129,1.0,4.0,97,0.02,,,0.81,VWS V14.01,2013-04-12 22:10:00,
2013-04-12 18:20:00,42.5,41.7,29.59,SE,129,1.0,4.0,97,0.03,,,0.83,VWS V14.01,2013-04-12 22:20:00,
2013-04-12 18:30:00,42.4,41.6,29.59,North,349,1.0,6.0,97,0.04,,,0.84,VWS V14.01,2013-04-12 22:30:00,
2013-04-12 18:40:00,42.3,41.5,29.59,NE,42,1.0,6.0,97,0.05,,,0.85,VWS V14.01,2013-04-12 22:40:00,
2013-04-12 18:50:00,42.3,41.5,29.58,ESE,122,0.0,3.0,97,0.04,,,0.85,VWS V14.01,2013-04-12 22:50:00,
2013-04-12 19:00:00,42.2,41.4,29.58,ESE,122,0.0,3.0,97,0.05,,,0.86,VWS V14.01,2013-04-12 23:00:00,
2013-04-12 19:10:00,42.2,41.4,29.58,East,96,1.0,4.0,97,0.06,,,0.87,VWS V14.01,2013-04-12 23:10:00,
2013-04-12 19:20:00,42.1,41.3,29.58,NE,46,1.0,4.0,97,0.06,,,0.87,VWS V14.01,2013-04-12 23:20:00,
2013-04-12 19:30:00,42.0,41.2,29.58,NNE,24,1.0,3.0,97,0.04,,,0.87,VWS V14.01,2013-04-12 23:30:00,
2013-04-12 19:40:00,41.8,41.0,29.58,North,9,1.0,4.0,97,0.03,,,0.87,VWS V14.01,2013-04-12 23:40:00,
2013-04-12 19:50:00,41.5,40.5,29.58,ESE,119,3.0,5.0,96,0.02,,,0.87,VWS V14.01,2013-04-12 23:50:00,
2013-04-12 20:00:00,41.4,40.6,29.58,ESE,118,1.0,4.0,97,0.02,,,0.87,VWS V14.01,2013-04-13 00:00:00,
2013-04-12 20:10:00,41.3,40.5,29.58,SE,132,1.0,4.0,97,0.01,,,0.87,VWS V14.01,2013-04-13 00:10:00,
2013-04-12 20:20:00,41.3,40.5,29.58,NNE,26,1.0,5.0,97,0.01,,,0.88,VWS V14.01,2013-04-13 00:20:00,
2013-04-12 20:30:00,41.2,40.4,29.57,East,84,1.0,4.0,97,0.01,,,0.88,VWS V14.01,2013-04-13 00:30:00,
2013-04-12 20:40:00,41.1,40.3,29.57,NNE,27,2.0,4.0,97,0.01,,,0.88,VWS V14.01,2013-04-13 00:40:00,
2013-04-12 20:50:00,41.0,40.2,29.57,ENE,57,1.0,5.0,97,0.01,,,0.88,VWS V14.01,2013-04-13 00:50:00,
2013-04-12 21:00:00,40.9,40.1,29.57,ENE,61,1.0,3.0,97,0.01,,,0.88,VWS V14.01,2013-04-13 01:00:00,
2013-04-12 21:10:00,40.9,40.1,29.57,SE,124,2.0,3.0,97,0.01,,,0.88,VWS V14.01,2013-04-13 01:10:00,
2013-04-12 21:20:00,40.7,39.9,29.58,ENE,76,2.0,4.0,97,0.01,,,0.88,VWS V14.01,2013-04-13 01:20:00,
2013-04-12 21:30:00,40.6,39.8,29.59,ENE,72,2.0,3.0,97,0.00,,,0.88,VWS V14.01,2013-04-13 01:30:00,
2013-04-12 21:40:00,40.5,39.7,29.59,ENE,63,2.0,4.0,97,0.00,,,0.88,VWS V14.01,2013-04-13 01:40:00,
2013-04-12 21:50:00,40.4,39.6,29.58,NE,36,1.0,5.0,97,0.00,,,0.88,VWS V14.01,2013-04-13 01:50:00,
2013-04-12 22:00:00,40.4,39.6,29.58,NE,36,2.0,4.0,97,0.00,,,0.88,VWS V14.01,2013-04-13 02:00:00,
2013-04-12 22:10:00,40.3,39.5,29.58,ENE,58,2.0,4.0,97,0.00,,,0.88,VWS V14.01,2013-04-13 02:10:00,
2013-04-12 22:20:00,40.3,39.5,29.59,NE,36,2.0,4.0,97,0.00,,,0.88,VWS V14.01,2013-04-13 02:20:00,
2013-04-12 22:30:00,40.3,39.5,29.58,NE,36,2.0,3.0,97,0.00,,,0.88,VWS V14.01,2013-04-13 02:30:00,
2013-04-12 22:40:00,40.2,39.4,29.58,NE,43,2.0,5.0,97,0.00,,,0.88,VWS V14.01,2013-04-13 02:40:00,
2013-04-12 22:50:00,40.2,39.4,29.59,NE,43,1.0,3.0,97,0.00,,,0.88,VWS V14.01,2013-04-13 02:50:00,
2013-04-12 23:00:00,40.1,39.3,29.59,NNE,30,2.0,4.0,97,0.00,,,0.88,VWS V14.01,2013-04-13 03:00:00,
2013-04-12 23:10:00,40.1,39.3,29.59,NE,49,2.0,3.0,97,0.00,,,0.88,VWS V14.01,2013-04-13 03:10:00,
2013-04-12 23:20:00,40.1,39.3,29.60,NE,40,2.0,4.0,97,0.00,,,0.88,VWS V14.01,2013-04-13 03:20:00,
2013-04-12 23:30:00,40.1,39.3,29.57,NE,40,1.0,3.0,97,0.00,,,0.88,VWS V14.01,2013-04-13 03:30:00,
2013-04-12 23:40:00,40.1,39.3,29.57,NE,56,1.0,4.0,97,0.00,,,0.88,VWS V14.01,2013-04-13 03:40:00,
2013-04-12 23:50:00,40.0,39.2,29.58,NNE,29,1.0,4.0,97,0.00,,,0.88,VWS V14.01,2013-04-13 03:50:00,